sensor_id;sensor_type;location;lat;lon;timestamp;pressure;altitude;pressure_sealevel;temperature;humidity
3780;BME280;1905;52.482;9.802;2022-11-18T00:02:25;99485.50;;;6.97;86.66
3780;BME280;1905;52.482;9.802;2022-11-18T00:04:53;99477.63;;;6.97;86.78
3780;BME280;1905;52.482;9.802;2022-11-18T00:07:20;99485.50;;;6.97;86.40
3780;BME280;1905;52.482;9.802;2022-11-18T00:09:48;99487.25;;;6.96;86.48
3780;BME280;1905;52.482;9.802;2022-11-18T00:12:16;99477.75;;;6.94;86.82
3780;BME280;1905;52.482;9.802;2022-11-18T00:15:04;99497.13;;;6.91;86.89
3780;BME280;1905;52.482;9.802;2022-11-18T00:17:31;99484.88;;;6.92;86.75
3780;BME280;1905;52.482;9.802;2022-11-18T00:19:59;99492.75;;;6.92;86.55
3780;BME280;1905;52.482;9.802;2022-11-18T00:22:26;99494.38;;;6.94;86.27
3780;BME280;1905;52.482;9.802;2022-11-18T00:24:55;99498.63;;;6.97;86.40
3780;BME280;1905;52.482;9.802;2022-11-18T00:27:23;99503.94;;;6.95;86.65
3780;BME280;1905;52.482;9.802;2022-11-18T00:29:51;99503.16;;;6.93;86.16
3780;BME280;1905;52.482;9.802;2022-11-18T00:32:20;99498.91;;;6.91;86.38
3780;BME280;1905;52.482;9.802;2022-11-18T00:34:47;99505.88;;;6.92;86.15
3780;BME280;1905;52.482;9.802;2022-11-18T00:37:15;99504.00;;;6.94;86.10
3780;BME280;1905;52.482;9.802;2022-11-18T00:39:43;99499.69;;;6.93;85.99
3780;BME280;1905;52.482;9.802;2022-11-18T00:42:10;99500.63;;;6.92;86.26
3780;BME280;1905;52.482;9.802;2022-11-18T00:44:55;99509.41;;;6.91;85.88
3780;BME280;1905;52.482;9.802;2022-11-18T00:47:27;99520.91;;;6.88;86.26
3780;BME280;1905;52.482;9.802;2022-11-18T00:49:54;99521.75;;;6.89;86.08
3780;BME280;1905;52.482;9.802;2022-11-18T00:52:22;99523.59;;;6.87;86.08
3780;BME280;1905;52.482;9.802;2022-11-18T00:54:50;99527.00;;;6.89;86.20
3780;BME280;1905;52.482;9.802;2022-11-18T00:57:17;99526.13;;;6.88;86.26
3780;BME280;1905;52.482;9.802;2022-11-18T00:59:45;99527.91;;;6.88;86.27
3780;BME280;1905;52.482;9.802;2022-11-18T01:02:13;99533.16;;;6.88;85.96
3780;BME280;1905;52.482;9.802;2022-11-18T01:04:42;99535.88;;;6.86;86.45
3780;BME280;1905;52.482;9.802;2022-11-18T01:07:09;99529.00;;;6.84;86.67
3780;BME280;1905;52.482;9.802;2022-11-18T01:09:37;99521.03;;;6.85;86.47
3780;BME280;1905;52.482;9.802;2022-11-18T01:12:05;99521.03;;;6.85;86.38
3780;BME280;1905;52.482;9.802;2022-11-18T01:14:50;99525.47;;;6.85;85.91
3780;BME280;1905;52.482;9.802;2022-11-18T01:17:18;99530.00;;;6.81;85.93
3780;BME280;1905;52.482;9.802;2022-11-18T01:19:47;99525.66;;;6.80;86.61
3780;BME280;1905;52.482;9.802;2022-11-18T01:22:14;99531.66;;;6.82;86.14
3780;BME280;1905;52.482;9.802;2022-11-18T01:24:42;99536.09;;;6.82;86.36
3780;BME280;1905;52.482;9.802;2022-11-18T01:27:10;99537.78;;;6.83;86.39
3780;BME280;1905;52.482;9.802;2022-11-18T01:29:37;99549.97;;;6.84;86.21
3780;BME280;1905;52.482;9.802;2022-11-18T01:32:05;99546.72;;;6.79;86.17
3780;BME280;1905;52.482;9.802;2022-11-18T01:34:52;99546.72;;;6.79;86.40
3780;BME280;1905;52.482;9.802;2022-11-18T01:37:19;99548.41;;;6.80;86.28
3780;BME280;1905;52.482;9.802;2022-11-18T01:39:47;99550.03;;;6.82;86.17
3780;BME280;1905;52.482;9.802;2022-11-18T01:42:16;99552.75;;;6.81;86.35
3780;BME280;1905;52.482;9.802;2022-11-18T01:44:59;99551.97;;;6.79;86.23
3780;BME280;1905;52.482;9.802;2022-11-18T01:47:33;99552.03;;;6.77;86.30
3780;BME280;1905;52.482;9.802;2022-11-18T01:50:04;99543.38;;;6.75;85.87
3780;BME280;1905;52.482;9.802;2022-11-18T01:52:32;99553.78;;;6.77;86.00
3780;BME280;1905;52.482;9.802;2022-11-18T01:55:05;99548.63;;;6.75;86.15
3780;BME280;1905;52.482;9.802;2022-11-18T01:57:34;99551.47;;;6.71;86.44
3780;BME280;1905;52.482;9.802;2022-11-18T02:00:03;99544.38;;;6.73;86.39
3780;BME280;1905;52.482;9.802;2022-11-18T02:02:32;99551.34;;;6.74;86.25
3780;BME280;1905;52.482;9.802;2022-11-18T02:05:02;99555.66;;;6.75;86.12
3780;BME280;1905;52.482;9.802;2022-11-18T02:07:33;99553.97;;;6.74;85.79
3780;BME280;1905;52.482;9.802;2022-11-18T02:10:04;99565.38;;;6.73;85.97
3780;BME280;1905;52.482;9.802;2022-11-18T02:12:32;99564.59;;;6.71;86.25
3780;BME280;1905;52.482;9.802;2022-11-18T02:15:01;99568.13;;;6.70;86.02
3780;BME280;1905;52.482;9.802;2022-11-18T02:17:37;99571.66;;;6.69;86.55
3780;BME280;1905;52.482;9.802;2022-11-18T02:20:38;99575.09;;;6.71;86.11
3780;BME280;1905;52.482;9.802;2022-11-18T02:26:36;99585.84;;;6.65;86.02
3780;BME280;1905;52.482;9.802;2022-11-18T02:29:13;99590.19;;;6.66;86.42
3780;BME280;1905;52.482;9.802;2022-11-18T02:31:46;99598.19;;;6.63;86.07
3780;BME280;1905;52.482;9.802;2022-11-18T02:34:23;99605.00;;;6.67;86.05
3780;BME280;1905;52.482;9.802;2022-11-18T02:36:59;99601.59;;;6.65;86.07
3780;BME280;1905;52.482;9.802;2022-11-18T02:39:33;99593.81;;;6.63;86.16
3780;BME280;1905;52.482;9.802;2022-11-18T02:42:05;99595.56;;;6.63;86.24
3780;BME280;1905;52.482;9.802;2022-11-18T02:44:39;99597.25;;;6.64;85.97
3780;BME280;1905;52.482;9.802;2022-11-18T02:47:10;99593.09;;;6.59;86.33
3780;BME280;1905;52.482;9.802;2022-11-18T02:49:45;99597.38;;;6.60;86.00
3780;BME280;1905;52.482;9.802;2022-11-18T02:52:15;99599.25;;;6.58;86.05
3780;BME280;1905;52.482;9.802;2022-11-18T02:54:45;99608.75;;;6.61;85.82
3780;BME280;1905;52.482;9.802;2022-11-18T02:57:14;99606.19;;;6.59;85.85
3780;BME280;1905;52.482;9.802;2022-11-18T02:59:44;99607.09;;;6.58;86.25
3780;BME280;1905;52.482;9.802;2022-11-18T03:02:15;99609.72;;;6.58;85.94
3780;BME280;1905;52.482;9.802;2022-11-18T03:04:44;99603.56;;;6.59;85.89
3780;BME280;1905;52.482;9.802;2022-11-18T03:07:17;99598.47;;;6.56;86.07
3780;BME280;1905;52.482;9.802;2022-11-18T03:09:50;99607.97;;;6.59;85.62
3780;BME280;1905;52.482;9.802;2022-11-18T03:12:24;99600.19;;;6.57;86.03
3780;BME280;1905;52.482;9.802;2022-11-18T03:15:04;99608.94;;;6.56;86.24
3780;BME280;1905;52.482;9.802;2022-11-18T03:17:44;99608.94;;;6.56;85.13
3780;BME280;1905;52.482;9.802;2022-11-18T03:20:20;99615.19;;;6.54;85.88
3780;BME280;1905;52.482;9.802;2022-11-18T03:22:53;99622.28;;;6.52;85.94
3780;BME280;1905;52.482;9.802;2022-11-18T03:25:28;99623.09;;;6.52;85.85
3780;BME280;1905;52.482;9.802;2022-11-18T03:28:04;99628.53;;;6.49;85.90
3780;BME280;1905;52.482;9.802;2022-11-18T03:30:38;99631.91;;;6.51;85.60
3780;BME280;1905;52.482;9.802;2022-11-18T03:33:10;99630.06;;;6.53;85.67
3780;BME280;1905;52.482;9.802;2022-11-18T03:35:42;99643.41;;;6.49;85.99
3780;BME280;1905;52.482;9.802;2022-11-18T03:38:14;99637.28;;;6.48;86.01
3780;BME280;1905;52.482;9.802;2022-11-18T03:40:47;99644.44;;;6.45;85.86
3780;BME280;1905;52.482;9.802;2022-11-18T03:43:19;99644.56;;;6.42;86.08
3780;BME280;1905;52.482;9.802;2022-11-18T03:45:51;99645.38;;;6.44;86.18
3780;BME280;1905;52.482;9.802;2022-11-18T03:48:24;99641.94;;;6.42;85.58
3780;BME280;1905;52.482;9.802;2022-11-18T03:50:56;99642.03;;;6.40;85.64
3780;BME280;1905;52.482;9.802;2022-11-18T03:53:27;99648.91;;;6.43;85.86
3780;BME280;1905;52.482;9.802;2022-11-18T03:56:00;99642.78;;;6.42;85.53
3780;BME280;1905;52.482;9.802;2022-11-18T03:58:33;99651.72;;;6.38;86.05
3780;BME280;1905;52.482;9.802;2022-11-18T04:01:08;99660.38;;;6.40;85.82
3780;BME280;1905;52.482;9.802;2022-11-18T04:03:37;99660.41;;;6.39;86.10
3780;BME280;1905;52.482;9.802;2022-11-18T04:06:10;99670.13;;;6.37;86.09
3780;BME280;1905;52.482;9.802;2022-11-18T04:08:48;99676.25;;;6.37;85.67
3780;BME280;1905;52.482;9.802;2022-11-18T04:11:23;99677.22;;;6.35;85.83
3780;BME280;1905;52.482;9.802;2022-11-18T04:14:11;99685.13;;;6.33;85.60
3780;BME280;1905;52.482;9.802;2022-11-18T04:16:43;99680.88;;;6.31;85.94
3780;BME280;1905;52.482;9.802;2022-11-18T04:19:10;99686.84;;;6.34;85.78
3780;BME280;1905;52.482;9.802;2022-11-18T04:21:38;99678.25;;;6.31;86.39
3780;BME280;1905;52.482;9.802;2022-11-18T04:24:06;99679.88;;;6.33;85.75
3780;BME280;1905;52.482;9.802;2022-11-18T04:26:34;99680.75;;;6.34;85.70
3780;BME280;1905;52.482;9.802;2022-11-18T04:29:02;99673.88;;;6.31;85.72
3780;BME280;1905;52.482;9.802;2022-11-18T04:31:30;99680.06;;;6.30;85.95
3780;BME280;1905;52.482;9.802;2022-11-18T04:33:59;99681.72;;;6.31;85.94
3780;BME280;1905;52.482;9.802;2022-11-18T04:36:26;99684.44;;;6.30;85.62
3780;BME280;1905;52.482;9.802;2022-11-18T04:38:54;99689.69;;;6.30;86.05
3780;BME280;1905;52.482;9.802;2022-11-18T04:41:22;99690.53;;;6.30;85.92
3780;BME280;1905;52.482;9.802;2022-11-18T04:44:09;99694.06;;;6.29;85.50
3780;BME280;1905;52.482;9.802;2022-11-18T04:46:40;99690.78;;;6.24;85.59
3780;BME280;1905;52.482;9.802;2022-11-18T04:49:10;99702.97;;;6.25;85.66
3780;BME280;1905;52.482;9.802;2022-11-18T04:51:39;99708.19;;;6.25;85.82
3780;BME280;1905;52.482;9.802;2022-11-18T04:54:07;99706.44;;;6.26;85.84
3780;BME280;1905;52.482;9.802;2022-11-18T04:56:35;99708.19;;;6.25;85.74
3780;BME280;1905;52.482;9.802;2022-11-18T04:59:03;99716.91;;;6.26;85.35
3780;BME280;1905;52.482;9.802;2022-11-18T05:01:31;99712.66;;;6.23;86.19
3780;BME280;1905;52.482;9.802;2022-11-18T05:04:00;99721.50;;;6.21;85.63
3780;BME280;1905;52.482;9.802;2022-11-18T05:06:30;99720.66;;;6.20;85.75
3780;BME280;1905;52.482;9.802;2022-11-18T05:08:58;99722.38;;;6.21;85.67
3780;BME280;1905;52.482;9.802;2022-11-18T05:11:26;99725.00;;;6.21;85.45
3780;BME280;1905;52.482;9.802;2022-11-18T05:14:12;99735.47;;;6.21;85.86
3780;BME280;1905;52.482;9.802;2022-11-18T05:16:40;99732.19;;;6.16;85.54
3780;BME280;1905;52.482;9.802;2022-11-18T05:19:08;99742.69;;;6.16;85.71
3780;BME280;1905;52.482;9.802;2022-11-18T05:21:37;99747.25;;;6.11;86.14
3780;BME280;1905;52.482;9.802;2022-11-18T05:24:05;99750.78;;;6.10;86.34
3780;BME280;1905;52.482;9.802;2022-11-18T05:26:33;99747.25;;;6.11;85.96
3780;BME280;1905;52.482;9.802;2022-11-18T05:29:00;99744.75;;;6.08;86.05
3780;BME280;1905;52.482;9.802;2022-11-18T05:31:28;99744.63;;;6.11;85.47
3780;BME280;1905;52.482;9.802;2022-11-18T05:33:56;99751.66;;;6.11;85.51
3780;BME280;1905;52.482;9.802;2022-11-18T05:36:24;99751.81;;;6.06;86.13
3780;BME280;1905;52.482;9.802;2022-11-18T05:38:53;99749.13;;;6.08;86.02
3780;BME280;1905;52.482;9.802;2022-11-18T05:41:24;99759.56;;;6.09;85.74
3780;BME280;1905;52.482;9.802;2022-11-18T05:44:10;99760.81;;;6.01;86.03
3780;BME280;1905;52.482;9.802;2022-11-18T05:46:37;99763.34;;;6.02;86.19
3780;BME280;1905;52.482;9.802;2022-11-18T05:49:05;99771.88;;;6.07;85.74
3780;BME280;1905;52.482;9.802;2022-11-18T05:51:33;99777.09;;;6.07;85.94
3780;BME280;1905;52.482;9.802;2022-11-18T05:54:05;99773.72;;;6.05;85.59
3780;BME280;1905;52.482;9.802;2022-11-18T05:56:35;99781.59;;;6.04;85.46
3780;BME280;1905;52.482;9.802;2022-11-18T05:59:04;99781.56;;;6.05;85.14
3780;BME280;1905;52.482;9.802;2022-11-18T06:01:35;99783.41;;;6.03;85.31
3780;BME280;1905;52.482;9.802;2022-11-18T06:04:14;99788.69;;;6.02;85.91
3780;BME280;1905;52.482;9.802;2022-11-18T06:06:45;99790.56;;;5.98;85.49
3780;BME280;1905;52.482;9.802;2022-11-18T06:09:17;99793.19;;;5.98;85.59
3780;BME280;1905;52.482;9.802;2022-11-18T06:11:53;99793.34;;;5.95;85.74
3780;BME280;1905;52.482;9.802;2022-11-18T06:14:26;99789.75;;;5.97;85.30
3780;BME280;1905;52.482;9.802;2022-11-18T06:17:00;99795.88;;;5.96;85.21
3780;BME280;1905;52.482;9.802;2022-11-18T06:19:30;99794.25;;;5.94;85.69
3780;BME280;1905;52.482;9.802;2022-11-18T06:21:58;99801.13;;;5.96;84.97
3780;BME280;1905;52.482;9.802;2022-11-18T06:24:29;99798.69;;;5.92;85.33
3780;BME280;1905;52.482;9.802;2022-11-18T06:26:57;99809.28;;;5.89;85.26
3780;BME280;1905;52.482;9.802;2022-11-18T06:29:25;99817.19;;;5.87;85.66
3780;BME280;1905;52.482;9.802;2022-11-18T06:31:54;99818.84;;;5.90;85.51
3780;BME280;1905;52.482;9.802;2022-11-18T06:34:21;99817.19;;;5.87;85.13
3780;BME280;1905;52.482;9.802;2022-11-18T06:36:49;99830.25;;;5.89;85.29
3780;BME280;1905;52.482;9.802;2022-11-18T06:39:17;99830.38;;;5.86;85.35
3780;BME280;1905;52.482;9.802;2022-11-18T06:41:46;99837.41;;;5.84;85.29
3780;BME280;1905;52.482;9.802;2022-11-18T06:44:14;99833.88;;;5.85;85.47
3780;BME280;1905;52.482;9.802;2022-11-18T06:46:41;99845.22;;;5.85;85.12
3780;BME280;1905;52.482;9.802;2022-11-18T06:49:25;99838.38;;;5.81;85.48
3780;BME280;1905;52.482;9.802;2022-11-18T06:51:53;99834.06;;;5.79;85.73
3780;BME280;1905;52.482;9.802;2022-11-18T06:54:20;99839.31;;;5.79;85.21
3780;BME280;1905;52.482;9.802;2022-11-18T06:56:50;99846.38;;;5.77;85.17
3780;BME280;1905;52.482;9.802;2022-11-18T06:59:17;99853.56;;;5.72;85.37
3780;BME280;1905;52.482;9.802;2022-11-18T07:01:49;99856.97;;;5.74;85.55
3780;BME280;1905;52.482;9.802;2022-11-18T07:04:18;99861.31;;;5.75;85.54
3780;BME280;1905;52.482;9.802;2022-11-18T07:06:46;99860.44;;;5.74;85.13
3780;BME280;1905;52.482;9.802;2022-11-18T07:09:14;99869.16;;;5.75;85.26
3780;BME280;1905;52.482;9.802;2022-11-18T07:11:42;99869.16;;;5.75;85.43
3780;BME280;1905;52.482;9.802;2022-11-18T07:14:11;99874.41;;;5.75;85.54
3780;BME280;1905;52.482;9.802;2022-11-18T07:16:39;99875.28;;;5.75;85.51
3780;BME280;1905;52.482;9.802;2022-11-18T07:19:08;99881.47;;;5.73;85.31
3780;BME280;1905;52.482;9.802;2022-11-18T07:21:37;99891.97;;;5.73;85.20
3780;BME280;1905;52.482;9.802;2022-11-18T07:24:07;99902.59;;;5.68;84.94
3780;BME280;1905;52.482;9.802;2022-11-18T07:26:35;99892.19;;;5.67;85.15
3780;BME280;1905;52.482;9.802;2022-11-18T07:29:03;99892.28;;;5.64;85.31
3780;BME280;1905;52.482;9.802;2022-11-18T07:31:32;99897.41;;;5.67;85.06
3780;BME280;1905;52.482;9.802;2022-11-18T07:34:03;99909.72;;;5.65;84.85
3780;BME280;1905;52.482;9.802;2022-11-18T07:36:31;99908.00;;;5.64;85.15
3780;BME280;1905;52.482;9.802;2022-11-18T07:39:02;99905.47;;;5.61;85.47
3780;BME280;1905;52.482;9.802;2022-11-18T07:41:30;99908.91;;;5.63;84.98
3780;BME280;1905;52.482;9.802;2022-11-18T07:44:00;99916.88;;;5.60;85.34
3780;BME280;1905;52.482;9.802;2022-11-18T07:46:30;99926.41;;;5.62;85.05
3780;BME280;1905;52.482;9.802;2022-11-18T07:49:00;99923.13;;;5.56;85.17
3780;BME280;1905;52.482;9.802;2022-11-18T07:51:31;99926.53;;;5.58;85.53
3780;BME280;1905;52.482;9.802;2022-11-18T07:54:00;99936.44;;;5.50;85.56
3780;BME280;1905;52.482;9.802;2022-11-18T07:56:27;99928.47;;;5.53;85.33
3780;BME280;1905;52.482;9.802;2022-11-18T07:58:55;99937.09;;;5.56;85.25
3780;BME280;1905;52.482;9.802;2022-11-18T08:01:24;99940.69;;;5.52;85.39
3780;BME280;1905;52.482;9.802;2022-11-18T08:03:54;99942.50;;;5.52;85.92
3780;BME280;1905;52.482;9.802;2022-11-18T08:06:23;99947.72;;;5.52;85.35
3780;BME280;1905;52.482;9.802;2022-11-18T08:08:51;99953.88;;;5.51;85.66
3780;BME280;1905;52.482;9.802;2022-11-18T08:11:21;99951.13;;;5.54;85.60
3780;BME280;1905;52.482;9.802;2022-11-18T08:13:48;99960.09;;;5.47;85.76
3780;BME280;1905;52.482;9.802;2022-11-18T08:16:18;99962.63;;;5.50;85.01
3780;BME280;1905;52.482;9.802;2022-11-18T08:18:46;99969.69;;;5.48;85.57
3780;BME280;1905;52.482;9.802;2022-11-18T08:21:15;99964.66;;;5.41;85.37
3780;BME280;1905;52.482;9.802;2022-11-18T08:23:48;99962.94;;;5.40;85.24
3780;BME280;1905;52.482;9.802;2022-11-18T08:26:15;99966.25;;;5.46;85.24
3780;BME280;1905;52.482;9.802;2022-11-18T08:28:44;99967.25;;;5.41;85.51
3780;BME280;1905;52.482;9.802;2022-11-18T08:31:14;99964.59;;;5.43;85.19
3780;BME280;1905;52.482;9.802;2022-11-18T08:33:42;99975.22;;;5.38;85.31
3780;BME280;1905;52.482;9.802;2022-11-18T08:36:13;99977.84;;;5.38;85.43
3780;BME280;1905;52.482;9.802;2022-11-18T08:38:41;99983.03;;;5.40;84.85
3780;BME280;1905;52.482;9.802;2022-11-18T08:41:11;99986.56;;;5.39;85.16
3780;BME280;1905;52.482;9.802;2022-11-18T08:43:40;99995.34;;;5.38;84.90
3780;BME280;1905;52.482;9.802;2022-11-18T08:46:07;99997.13;;;5.36;84.92
3780;BME280;1905;52.482;9.802;2022-11-18T08:48:35;99996.22;;;5.37;85.38
3780;BME280;1905;52.482;9.802;2022-11-18T08:51:03;99997.97;;;5.36;85.12
3780;BME280;1905;52.482;9.802;2022-11-18T08:53:31;100009.47;;;5.32;84.96
3780;BME280;1905;52.482;9.802;2022-11-18T08:56:01;100013.00;;;5.31;84.86
3780;BME280;1905;52.482;9.802;2022-11-18T08:58:31;100008.88;;;5.24;85.44
3780;BME280;1905;52.482;9.802;2022-11-18T09:01:03;100020.94;;;5.28;84.93
3780;BME280;1905;52.482;9.802;2022-11-18T09:03:32;100018.38;;;5.27;84.65
3780;BME280;1905;52.482;9.802;2022-11-18T09:06:04;100023.66;;;5.25;84.84
3780;BME280;1905;52.482;9.802;2022-11-18T09:08:32;100017.63;;;5.23;85.11
3780;BME280;1905;52.482;9.802;2022-11-18T09:11:04;100017.72;;;5.20;84.49
3780;BME280;1905;52.482;9.802;2022-11-18T09:13:33;100016.75;;;5.23;85.38
3780;BME280;1905;52.482;9.802;2022-11-18T09:16:21;100024.69;;;5.21;84.70
3780;BME280;1905;52.482;9.802;2022-11-18T09:18:54;100028.19;;;5.20;85.07
3780;BME280;1905;52.482;9.802;2022-11-18T09:21:22;100024.06;;;5.13;85.52
3780;BME280;1905;52.482;9.802;2022-11-18T09:23:50;100038.84;;;5.14;84.59
3780;BME280;1905;52.482;9.802;2022-11-18T09:26:19;100034.28;;;5.21;84.03
3780;BME280;1905;52.482;9.802;2022-11-18T09:28:52;100040.56;;;5.15;84.74
3780;BME280;1905;52.482;9.802;2022-11-18T09:31:20;100045.81;;;5.15;84.32
3780;BME280;1905;52.482;9.802;2022-11-18T09:33:47;100050.19;;;5.15;84.92
3780;BME280;1905;52.482;9.802;2022-11-18T09:36:17;100053.66;;;5.15;84.06
3780;BME280;1905;52.482;9.802;2022-11-18T09:38:45;100050.16;;;5.16;84.16
3780;BME280;1905;52.482;9.802;2022-11-18T09:41:46;100053.03;;;5.07;84.37
3780;BME280;1905;52.482;9.802;2022-11-18T09:44:24;100060.81;;;5.09;85.10
3780;BME280;1905;52.482;9.802;2022-11-18T09:47:03;100065.19;;;5.08;84.77
3780;BME280;1905;52.482;9.802;2022-11-18T09:49:36;100072.34;;;5.03;84.83
3780;BME280;1905;52.482;9.802;2022-11-18T09:52:10;100075.78;;;5.05;84.87
3780;BME280;1905;52.482;9.802;2022-11-18T09:54:42;100074.84;;;5.08;84.14
3780;BME280;1905;52.482;9.802;2022-11-18T09:57:13;100078.44;;;5.04;84.36
3780;BME280;1905;52.482;9.802;2022-11-18T09:59:43;100092.38;;;5.04;84.19
3780;BME280;1905;52.482;9.802;2022-11-18T10:02:26;100086.25;;;5.05;84.30
3780;BME280;1905;52.482;9.802;2022-11-18T10:04:56;100090.56;;;5.06;84.77
3780;BME280;1905;52.482;9.802;2022-11-18T10:07:34;100095.00;;;5.04;84.19
3780;BME280;1905;52.482;9.802;2022-11-18T10:10:10;100100.31;;;5.01;84.22
3780;BME280;1905;52.482;9.802;2022-11-18T10:12:45;100104.69;;;5.01;84.75
3780;BME280;1905;52.482;9.802;2022-11-18T10:15:23;100108.41;;;4.94;84.61
3780;BME280;1905;52.482;9.802;2022-11-18T10:17:59;100112.69;;;4.96;84.16
3780;BME280;1905;52.482;9.802;2022-11-18T10:20:34;100109.06;;;5.00;84.59
3780;BME280;1905;52.482;9.802;2022-11-18T10:23:12;100111.69;;;5.00;84.04
3780;BME280;1905;52.482;9.802;2022-11-18T10:25:41;100112.88;;;4.90;84.87
3780;BME280;1905;52.482;9.802;2022-11-18T10:28:21;100107.63;;;4.90;85.35
3780;BME280;1905;52.482;9.802;2022-11-18T10:30:51;100113.78;;;4.89;84.32
3780;BME280;1905;52.482;9.802;2022-11-18T10:33:24;100122.56;;;4.87;85.05
3780;BME280;1905;52.482;9.802;2022-11-18T10:36:18;100130.19;;;4.94;84.47
3780;BME280;1905;52.482;9.802;2022-11-18T10:38:45;100125.94;;;4.90;84.68
3780;BME280;1905;52.482;9.802;2022-11-18T10:41:17;100132.91;;;4.91;83.82
3780;BME280;1905;52.482;9.802;2022-11-18T10:43:49;100144.25;;;4.90;84.49
3780;BME280;1905;52.482;9.802;2022-11-18T10:46:23;100145.19;;;4.89;84.57
3780;BME280;1905;52.482;9.802;2022-11-18T10:49:11;100152.16;;;4.89;84.81
3780;BME280;1905;52.482;9.802;2022-11-18T10:51:41;100153.13;;;4.86;83.80
3780;BME280;1905;52.482;9.802;2022-11-18T10:54:14;100154.00;;;4.85;84.20
3780;BME280;1905;52.482;9.802;2022-11-18T10:56:47;100154.00;;;4.85;84.48
3780;BME280;1905;52.482;9.802;2022-11-18T10:59:28;100163.44;;;4.91;83.96
3780;BME280;1905;52.482;9.802;2022-11-18T11:02:09;100160.03;;;4.87;83.90
3780;BME280;1905;52.482;9.802;2022-11-18T11:04:40;100162.75;;;4.84;84.42
3780;BME280;1905;52.482;9.802;2022-11-18T11:07:19;100164.56;;;4.82;84.61
3780;BME280;1905;52.482;9.802;2022-11-18T11:10:00;100158.34;;;4.86;83.98
3780;BME280;1905;52.482;9.802;2022-11-18T11:12:30;100158.50;;;4.80;84.63
3780;BME280;1905;52.482;9.802;2022-11-18T11:15:00;100163.81;;;4.77;84.54
3780;BME280;1905;52.482;9.802;2022-11-18T11:17:34;100162.03;;;4.79;84.09
3780;BME280;1905;52.482;9.802;2022-11-18T11:20:04;100168.97;;;4.80;84.51
3780;BME280;1905;52.482;9.802;2022-11-18T11:22:33;100169.78;;;4.82;84.60
3780;BME280;1905;52.482;9.802;2022-11-18T11:25:00;100168.13;;;4.79;83.91
3780;BME280;1905;52.482;9.802;2022-11-18T11:27:48;100171.44;;;4.85;84.28
3780;BME280;1905;52.482;9.802;2022-11-18T11:30:45;100176.09;;;4.75;84.51
3780;BME280;1905;52.482;9.802;2022-11-18T11:33:26;100174.28;;;4.77;84.56
3780;BME280;1905;52.482;9.802;2022-11-18T11:36:08;100178.66;;;4.76;83.83
3780;BME280;1905;52.482;9.802;2022-11-18T11:38:51;100190.06;;;4.74;84.12
3780;BME280;1905;52.482;9.802;2022-11-18T11:41:30;100183.09;;;4.73;84.19
3780;BME280;1905;52.482;9.802;2022-11-18T11:44:20;100191.78;;;4.75;84.33
3780;BME280;1905;52.482;9.802;2022-11-18T11:46:58;100190.22;;;4.68;83.79
3780;BME280;1905;52.482;9.802;2022-11-18T11:49:56;100190.19;;;4.69;83.96
3780;BME280;1905;52.482;9.802;2022-11-18T11:52:33;100192.19;;;4.60;84.22
3780;BME280;1905;52.482;9.802;2022-11-18T11:55:15;100192.13;;;4.63;84.87
3780;BME280;1905;52.482;9.802;2022-11-18T11:58:01;100202.44;;;4.67;83.92
3780;BME280;1905;52.482;9.802;2022-11-18T12:00:34;100196.41;;;4.65;83.55
3780;BME280;1905;52.482;9.802;2022-11-18T12:03:16;100216.50;;;4.63;84.00
3780;BME280;1905;52.482;9.802;2022-11-18T12:05:46;100220.81;;;4.66;83.85
3780;BME280;1905;52.482;9.802;2022-11-18T12:08:18;100220.81;;;4.66;84.57
3780;BME280;1905;52.482;9.802;2022-11-18T12:10:50;100216.56;;;4.62;84.15
3780;BME280;1905;52.482;9.802;2022-11-18T12:13:28;100215.66;;;4.63;83.98
3780;BME280;1905;52.482;9.802;2022-11-18T12:16:07;100214.75;;;4.64;83.52
3780;BME280;1905;52.482;9.802;2022-11-18T12:18:39;100214.78;;;4.62;84.09
3780;BME280;1905;52.482;9.802;2022-11-18T12:24:30;100217.41;;;4.62;84.18
3780;BME280;1905;52.482;9.802;2022-11-18T12:26:59;100218.25;;;4.63;84.20
3780;BME280;1905;52.482;9.802;2022-11-18T12:29:35;100219.28;;;4.57;84.48
3780;BME280;1905;52.482;9.802;2022-11-18T12:32:22;100227.19;;;4.56;84.39
3780;BME280;1905;52.482;9.802;2022-11-18T12:34:56;100223.66;;;4.57;83.71
3780;BME280;1905;52.482;9.802;2022-11-18T12:37:43;100221.81;;;4.62;83.96
3780;BME280;1905;52.482;9.802;2022-11-18T12:40:30;100226.25;;;4.57;83.58
3780;BME280;1905;52.482;9.802;2022-11-18T12:42:58;100228.00;;;4.58;84.08
3780;BME280;1905;52.482;9.802;2022-11-18T12:45:50;100227.94;;;4.59;83.64
3780;BME280;1905;52.482;9.802;2022-11-18T12:48:36;100229.81;;;4.56;84.01
3780;BME280;1905;52.482;9.802;2022-11-18T12:54:21;100239.44;;;4.54;83.26
3780;BME280;1905;52.482;9.802;2022-11-18T12:56:50;100244.63;;;4.55;83.45
3780;BME280;1905;52.482;9.802;2022-11-18T12:59:26;100253.34;;;4.54;83.41
3780;BME280;1905;52.482;9.802;2022-11-18T13:02:04;100253.41;;;4.53;84.28
3780;BME280;1905;52.482;9.802;2022-11-18T13:04:32;100253.34;;;4.56;83.52
3780;BME280;1905;52.482;9.802;2022-11-18T13:07:11;100263.00;;;4.52;83.52
3780;BME280;1905;52.482;9.802;2022-11-18T13:10:15;100264.75;;;4.52;84.37
3780;BME280;1905;52.482;9.802;2022-11-18T13:12:48;100270.84;;;4.52;84.19
3780;BME280;1905;52.482;9.802;2022-11-18T13:15:17;100263.94;;;4.50;83.30
3780;BME280;1905;52.482;9.802;2022-11-18T13:18:10;100262.19;;;4.50;83.69
3780;BME280;1905;52.482;9.802;2022-11-18T13:20:40;100261.38;;;4.48;84.04
3780;BME280;1905;52.482;9.802;2022-11-18T13:23:26;100270.13;;;4.46;83.63
3780;BME280;1905;52.482;9.802;2022-11-18T13:26:18;100277.91;;;4.49;83.46
3780;BME280;1905;52.482;9.802;2022-11-18T13:29:02;100286.00;;;4.38;84.13
3780;BME280;1905;52.482;9.802;2022-11-18T13:31:37;100278.97;;;4.42;84.32
3780;BME280;1905;52.482;9.802;2022-11-18T13:34:14;100285.00;;;4.44;83.59
3780;BME280;1905;52.482;9.802;2022-11-18T13:36:46;100283.31;;;4.43;84.04
3780;BME280;1905;52.482;9.802;2022-11-18T13:39:19;100295.59;;;4.38;84.22
3780;BME280;1905;52.482;9.802;2022-11-18T13:41:59;100296.53;;;4.37;83.51
3780;BME280;1905;52.482;9.802;2022-11-18T13:44:29;100299.06;;;4.40;83.32
3780;BME280;1905;52.482;9.802;2022-11-18T13:47:03;100298.19;;;4.39;83.68
3780;BME280;1905;52.482;9.802;2022-11-18T13:49:42;100302.69;;;4.34;84.10
3780;BME280;1905;52.482;9.802;2022-11-18T13:52:18;100308.78;;;4.35;83.81
3780;BME280;1905;52.482;9.802;2022-11-18T13:54:49;100315.84;;;4.30;83.59
3780;BME280;1905;52.482;9.802;2022-11-18T13:57:21;100315.94;;;4.27;84.08
3780;BME280;1905;52.482;9.802;2022-11-18T13:59:51;100317.56;;;4.31;83.69
3780;BME280;1905;52.482;9.802;2022-11-18T14:02:21;100306.22;;;4.32;83.20
3780;BME280;1905;52.482;9.802;2022-11-18T14:04:52;100314.06;;;4.32;83.92
3780;BME280;1905;52.482;9.802;2022-11-18T14:07:26;100315.81;;;4.31;83.22
3780;BME280;1905;52.482;9.802;2022-11-18T14:09:56;100309.81;;;4.28;83.62